sensor_id;sensor_type;location;lat;lon;timestamp;temperature;humidity
15630;DHT22;7914;50.842;0.166;2023-01-05T00:01:01;10.60;99.90
15630;DHT22;7914;50.842;0.166;2023-01-05T00:03:26;10.50;99.90
15630;DHT22;7914;50.842;0.166;2023-01-05T00:05:52;10.50;99.90
15630;DHT22;7914;50.842;0.166;2023-01-05T00:08:22;10.50;99.90
15630;DHT22;7914;50.842;0.166;2023-01-05T00:10:48;10.40;99.90
15630;DHT22;7914;50.842;0.166;2023-01-05T00:13:32;10.40;99.90
15630;DHT22;7914;50.842;0.166;2023-01-05T00:16:16;10.40;99.90
15630;DHT22;7914;50.842;0.166;2023-01-05T00:19:00;10.40;99.90
15630;DHT22;7914;50.842;0.166;2023-01-05T00:21:44;10.30;99.90
15630;DHT22;7914;50.842;0.166;2023-01-05T00:24:29;10.30;99.90
15630;DHT22;7914;50.842;0.166;2023-01-05T00:26:56;10.30;99.90
15630;DHT22;7914;50.842;0.166;2023-01-05T00:29:21;10.30;99.90
15630;DHT22;7914;50.842;0.166;2023-01-05T00:31:47;10.20;99.90
15630;DHT22;7914;50.842;0.166;2023-01-05T00:34:13;10.30;99.90
15630;DHT22;7914;50.842;0.166;2023-01-05T00:36:39;10.20;99.90
15630;DHT22;7914;50.842;0.166;2023-01-05T00:39:05;10.20;99.90
15630;DHT22;7914;50.842;0.166;2023-01-05T00:41:31;10.20;99.90
15630;DHT22;7914;50.842;0.166;2023-01-05T00:43:56;10.20;99.90
15630;DHT22;7914;50.842;0.166;2023-01-05T00:46:22;10.20;99.90
15630;DHT22;7914;50.842;0.166;2023-01-05T00:48:48;10.20;99.90
15630;DHT22;7914;50.842;0.166;2023-01-05T00:51:13;10.20;99.90
15630;DHT22;7914;50.842;0.166;2023-01-05T00:53:39;10.20;99.90
15630;DHT22;7914;50.842;0.166;2023-01-05T00:56:05;10.20;99.90
15630;DHT22;7914;50.842;0.166;2023-01-05T00:58:31;10.20;99.90
15630;DHT22;7914;50.842;0.166;2023-01-05T01:00:56;10.30;99.90
15630;DHT22;7914;50.842;0.166;2023-01-05T01:03:22;10.20;99.90
15630;DHT22;7914;50.842;0.166;2023-01-05T01:05:58;10.20;99.90
15630;DHT22;7914;50.842;0.166;2023-01-05T01:08:23;10.20;99.90
15630;DHT22;7914;50.842;0.166;2023-01-05T01:10:49;10.30;99.90
15630;DHT22;7914;50.842;0.166;2023-01-05T01:13:15;10.20;99.90
15630;DHT22;7914;50.842;0.166;2023-01-05T01:15:40;10.20;99.90
15630;DHT22;7914;50.842;0.166;2023-01-05T01:18:06;10.30;99.90
15630;DHT22;7914;50.842;0.166;2023-01-05T01:20:32;10.30;99.90
15630;DHT22;7914;50.842;0.166;2023-01-05T01:22:57;10.30;99.90
15630;DHT22;7914;50.842;0.166;2023-01-05T01:25:26;10.30;99.90
15630;DHT22;7914;50.842;0.166;2023-01-05T01:27:51;10.30;99.90
15630;DHT22;7914;50.842;0.166;2023-01-05T01:30:17;10.30;99.90
15630;DHT22;7914;50.842;0.166;2023-01-05T01:32:44;10.30;99.90
15630;DHT22;7914;50.842;0.166;2023-01-05T01:35:09;10.20;99.90
15630;DHT22;7914;50.842;0.166;2023-01-05T01:37:35;10.20;99.90
15630;DHT22;7914;50.842;0.166;2023-01-05T01:40:01;10.20;99.90
15630;DHT22;7914;50.842;0.166;2023-01-05T01:42:27;10.10;99.90
15630;DHT22;7914;50.842;0.166;2023-01-05T01:44:58;10.10;99.90
15630;DHT22;7914;50.842;0.166;2023-01-05T01:47:59;10.10;99.90
15630;DHT22;7914;50.842;0.166;2023-01-05T01:50:44;10.10;99.90
15630;DHT22;7914;50.842;0.166;2023-01-05T01:53:18;10.00;99.90
15630;DHT22;7914;50.842;0.166;2023-01-05T01:55:46;10.00;99.90
15630;DHT22;7914;50.842;0.166;2023-01-05T01:58:15;10.00;99.90
15630;DHT22;7914;50.842;0.166;2023-01-05T02:00:42;10.00;99.90
15630;DHT22;7914;50.842;0.166;2023-01-05T02:03:09;10.00;99.90
15630;DHT22;7914;50.842;0.166;2023-01-05T02:08:03;10.00;99.90
15630;DHT22;7914;50.842;0.166;2023-01-05T02:10:56;10.00;99.90
15630;DHT22;7914;50.842;0.166;2023-01-05T02:38:38;10.20;99.90
15630;DHT22;7914;50.842;0.166;2023-01-05T02:43:44;10.30;99.90
15630;DHT22;7914;50.842;0.166;2023-01-05T02:46:10;10.40;99.90
15630;DHT22;7914;50.842;0.166;2023-01-05T02:48:36;10.40;99.90
15630;DHT22;7914;50.842;0.166;2023-01-05T02:51:25;10.40;99.90
15630;DHT22;7914;50.842;0.166;2023-01-05T02:57:21;10.40;99.90
15630;DHT22;7914;50.842;0.166;2023-01-05T03:00:09;10.40;99.90
15630;DHT22;7914;50.842;0.166;2023-01-05T03:02:37;10.40;99.90
15630;DHT22;7914;50.842;0.166;2023-01-05T03:05:10;10.40;99.90
15630;DHT22;7914;50.842;0.166;2023-01-05T03:07:39;10.40;99.90
15630;DHT22;7914;50.842;0.166;2023-01-05T03:10:07;10.40;99.90
15630;DHT22;7914;50.842;0.166;2023-01-05T03:12:56;10.50;99.90
15630;DHT22;7914;50.842;0.166;2023-01-05T03:15:42;10.50;99.90
15630;DHT22;7914;50.842;0.166;2023-01-05T03:18:11;10.50;99.90
15630;DHT22;7914;50.842;0.166;2023-01-05T03:20:41;10.40;99.90
15630;DHT22;7914;50.842;0.166;2023-01-05T03:23:10;10.30;99.90
15630;DHT22;7914;50.842;0.166;2023-01-05T03:25:55;10.40;99.90
15630;DHT22;7914;50.842;0.166;2023-01-05T03:28:55;10.40;99.90
15630;DHT22;7914;50.842;0.166;2023-01-05T03:34:42;10.40;99.90
15630;DHT22;7914;50.842;0.166;2023-01-05T03:37:42;10.40;99.90
15630;DHT22;7914;50.842;0.166;2023-01-05T03:40:13;10.40;99.90
15630;DHT22;7914;50.842;0.166;2023-01-05T03:42:42;10.40;99.90
15630;DHT22;7914;50.842;0.166;2023-01-05T03:45:09;10.40;99.90
15630;DHT22;7914;50.842;0.166;2023-01-05T03:47:35;10.40;99.90
15630;DHT22;7914;50.842;0.166;2023-01-05T03:50:01;10.40;99.90
15630;DHT22;7914;50.842;0.166;2023-01-05T03:52:26;10.50;99.90
15630;DHT22;7914;50.842;0.166;2023-01-05T03:54:52;10.50;99.90
15630;DHT22;7914;50.842;0.166;2023-01-05T03:57:18;10.50;99.90
15630;DHT22;7914;50.842;0.166;2023-01-05T03:59:43;10.50;99.90
15630;DHT22;7914;50.842;0.166;2023-01-05T04:02:09;10.50;99.90
15630;DHT22;7914;50.842;0.166;2023-01-05T04:04:35;10.50;99.90
15630;DHT22;7914;50.842;0.166;2023-01-05T04:07:00;10.50;99.90
15630;DHT22;7914;50.842;0.166;2023-01-05T04:09:26;10.60;99.90
15630;DHT22;7914;50.842;0.166;2023-01-05T04:11:52;10.60;99.90
15630;DHT22;7914;50.842;0.166;2023-01-05T04:14:17;10.60;99.90
15630;DHT22;7914;50.842;0.166;2023-01-05T04:16:43;10.60;99.90
15630;DHT22;7914;50.842;0.166;2023-01-05T04:19:09;10.50;99.90
15630;DHT22;7914;50.842;0.166;2023-01-05T04:21:35;10.50;99.90
15630;DHT22;7914;50.842;0.166;2023-01-05T04:24:01;10.50;99.90
15630;DHT22;7914;50.842;0.166;2023-01-05T04:26:26;10.50;99.90
15630;DHT22;7914;50.842;0.166;2023-01-05T04:28:52;10.50;99.90
15630;DHT22;7914;50.842;0.166;2023-01-05T04:31:18;10.50;99.90
15630;DHT22;7914;50.842;0.166;2023-01-05T04:33:43;10.50;99.90
15630;DHT22;7914;50.842;0.166;2023-01-05T04:36:10;10.50;99.90
15630;DHT22;7914;50.842;0.166;2023-01-05T04:38:35;10.50;99.90
15630;DHT22;7914;50.842;0.166;2023-01-05T04:41:01;10.50;99.90
15630;DHT22;7914;50.842;0.166;2023-01-05T04:43:27;10.50;99.90
15630;DHT22;7914;50.842;0.166;2023-01-05T04:45:53;10.50;99.90
15630;DHT22;7914;50.842;0.166;2023-01-05T04:48:19;10.50;99.90
15630;DHT22;7914;50.842;0.166;2023-01-05T04:50:50;10.50;99.90
15630;DHT22;7914;50.842;0.166;2023-01-05T04:53:16;10.50;99.90
15630;DHT22;7914;50.842;0.166;2023-01-05T04:55:44;10.50;99.90
15630;DHT22;7914;50.842;0.166;2023-01-05T04:58:10;10.50;99.90
15630;DHT22;7914;50.842;0.166;2023-01-05T05:00:36;10.60;99.90
15630;DHT22;7914;50.842;0.166;2023-01-05T05:03:01;10.50;99.90
15630;DHT22;7914;50.842;0.166;2023-01-05T05:05:28;10.60;99.90
15630;DHT22;7914;50.842;0.166;2023-01-05T05:07:53;10.60;99.90
15630;DHT22;7914;50.842;0.166;2023-01-05T05:10:19;10.60;99.90
15630;DHT22;7914;50.842;0.166;2023-01-05T05:12:45;10.60;99.90
15630;DHT22;7914;50.842;0.166;2023-01-05T05:15:11;10.60;99.90
15630;DHT22;7914;50.842;0.166;2023-01-05T05:17:37;10.60;99.90
15630;DHT22;7914;50.842;0.166;2023-01-05T05:20:03;10.50;99.90
15630;DHT22;7914;50.842;0.166;2023-01-05T05:22:30;10.50;99.90
15630;DHT22;7914;50.842;0.166;2023-01-05T05:24:55;10.50;99.90
15630;DHT22;7914;50.842;0.166;2023-01-05T05:27:21;10.50;99.90
15630;DHT22;7914;50.842;0.166;2023-01-05T05:29:47;10.50;99.90
15630;DHT22;7914;50.842;0.166;2023-01-05T05:32:13;10.50;99.90
15630;DHT22;7914;50.842;0.166;2023-01-05T05:34:38;10.50;99.90
15630;DHT22;7914;50.842;0.166;2023-01-05T05:37:04;10.50;99.90
15630;DHT22;7914;50.842;0.166;2023-01-05T05:39:30;10.50;99.90
15630;DHT22;7914;50.842;0.166;2023-01-05T05:41:55;10.50;99.90
15630;DHT22;7914;50.842;0.166;2023-01-05T05:44:21;10.50;99.90
15630;DHT22;7914;50.842;0.166;2023-01-05T05:46:47;10.50;99.90
15630;DHT22;7914;50.842;0.166;2023-01-05T05:49:12;10.50;99.90
15630;DHT22;7914;50.842;0.166;2023-01-05T05:51:38;10.50;99.90
15630;DHT22;7914;50.842;0.166;2023-01-05T05:54:04;10.40;99.90
15630;DHT22;7914;50.842;0.166;2023-01-05T05:56:30;10.50;99.90
15630;DHT22;7914;50.842;0.166;2023-01-05T05:58:56;10.40;99.90
15630;DHT22;7914;50.842;0.166;2023-01-05T06:01:22;10.40;99.90
15630;DHT22;7914;50.842;0.166;2023-01-05T06:03:47;10.50;99.90
15630;DHT22;7914;50.842;0.166;2023-01-05T06:06:13;10.50;99.90
15630;DHT22;7914;50.842;0.166;2023-01-05T06:08:39;10.40;99.90
15630;DHT22;7914;50.842;0.166;2023-01-05T06:11:04;10.40;99.90
15630;DHT22;7914;50.842;0.166;2023-01-05T06:13:30;10.40;99.90
15630;DHT22;7914;50.842;0.166;2023-01-05T06:15:56;10.40;99.90
15630;DHT22;7914;50.842;0.166;2023-01-05T06:18:21;10.40;99.90
15630;DHT22;7914;50.842;0.166;2023-01-05T06:20:47;10.40;99.90
15630;DHT22;7914;50.842;0.166;2023-01-05T06:23:13;10.30;99.90
15630;DHT22;7914;50.842;0.166;2023-01-05T06:25:39;10.40;99.90
15630;DHT22;7914;50.842;0.166;2023-01-05T06:28:05;10.40;99.90
15630;DHT22;7914;50.842;0.166;2023-01-05T06:30:31;10.40;99.90
15630;DHT22;7914;50.842;0.166;2023-01-05T06:32:56;10.40;99.90
15630;DHT22;7914;50.842;0.166;2023-01-05T06:35:22;10.40;99.90
15630;DHT22;7914;50.842;0.166;2023-01-05T06:37:48;10.40;99.90
15630;DHT22;7914;50.842;0.166;2023-01-05T06:40:14;10.40;99.90
15630;DHT22;7914;50.842;0.166;2023-01-05T06:42:41;10.30;99.90
15630;DHT22;7914;50.842;0.166;2023-01-05T06:45:10;10.30;99.90
15630;DHT22;7914;50.842;0.166;2023-01-05T06:47:36;10.30;99.90
15630;DHT22;7914;50.842;0.166;2023-01-05T06:50:02;10.30;99.90
15630;DHT22;7914;50.842;0.166;2023-01-05T06:52:28;10.30;99.90
15630;DHT22;7914;50.842;0.166;2023-01-05T06:54:54;10.30;99.90
15630;DHT22;7914;50.842;0.166;2023-01-05T06:57:19;10.40;99.90
15630;DHT22;7914;50.842;0.166;2023-01-05T06:59:45;10.40;99.90
15630;DHT22;7914;50.842;0.166;2023-01-05T07:02:15;10.40;99.90
15630;DHT22;7914;50.842;0.166;2023-01-05T07:04:41;10.40;99.90
15630;DHT22;7914;50.842;0.166;2023-01-05T07:07:11;10.40;99.90
15630;DHT22;7914;50.842;0.166;2023-01-05T07:09:37;10.50;99.90
15630;DHT22;7914;50.842;0.166;2023-01-05T07:12:03;10.50;99.90
15630;DHT22;7914;50.842;0.166;2023-01-05T07:14:29;10.50;99.90
15630;DHT22;7914;50.842;0.166;2023-01-05T07:16:54;10.60;99.90
15630;DHT22;7914;50.842;0.166;2023-01-05T07:19:20;10.60;99.90
15630;DHT22;7914;50.842;0.166;2023-01-05T07:21:46;10.60;99.90
15630;DHT22;7914;50.842;0.166;2023-01-05T07:24:11;10.60;99.90
15630;DHT22;7914;50.842;0.166;2023-01-05T07:26:37;10.60;99.90
15630;DHT22;7914;50.842;0.166;2023-01-05T07:29:03;10.70;99.90
15630;DHT22;7914;50.842;0.166;2023-01-05T07:31:28;10.70;99.90
15630;DHT22;7914;50.842;0.166;2023-01-05T07:33:54;10.70;99.90
15630;DHT22;7914;50.842;0.166;2023-01-05T07:36:20;10.70;99.90
15630;DHT22;7914;50.842;0.166;2023-01-05T07:38:45;10.70;99.90
15630;DHT22;7914;50.842;0.166;2023-01-05T07:41:11;10.70;99.90
15630;DHT22;7914;50.842;0.166;2023-01-05T07:43:36;10.70;99.90
15630;DHT22;7914;50.842;0.166;2023-01-05T07:46:03;10.70;99.90
15630;DHT22;7914;50.842;0.166;2023-01-05T07:48:29;10.70;99.90
15630;DHT22;7914;50.842;0.166;2023-01-05T07:51:03;10.70;99.90
15630;DHT22;7914;50.842;0.166;2023-01-05T07:53:30;10.70;99.90
15630;DHT22;7914;50.842;0.166;2023-01-05T07:56:00;10.70;99.90
15630;DHT22;7914;50.842;0.166;2023-01-05T07:58:26;10.80;99.90
15630;DHT22;7914;50.842;0.166;2023-01-05T08:00:53;10.80;99.90
15630;DHT22;7914;50.842;0.166;2023-01-05T08:03:19;10.80;99.90
15630;DHT22;7914;50.842;0.166;2023-01-05T08:05:45;10.80;99.90
15630;DHT22;7914;50.842;0.166;2023-01-05T08:08:11;10.80;99.90
15630;DHT22;7914;50.842;0.166;2023-01-05T08:10:38;10.80;99.90
15630;DHT22;7914;50.842;0.166;2023-01-05T08:13:06;10.80;99.90
15630;DHT22;7914;50.842;0.166;2023-01-05T08:15:51;10.90;99.90
15630;DHT22;7914;50.842;0.166;2023-01-05T08:18:17;10.90;99.90
15630;DHT22;7914;50.842;0.166;2023-01-05T08:20:49;10.90;99.90
15630;DHT22;7914;50.842;0.166;2023-01-05T08:23:15;10.90;99.90
15630;DHT22;7914;50.842;0.166;2023-01-05T08:25:40;10.90;99.90
15630;DHT22;7914;50.842;0.166;2023-01-05T08:28:06;10.90;99.90
15630;DHT22;7914;50.842;0.166;2023-01-05T08:30:32;10.90;99.90
15630;DHT22;7914;50.842;0.166;2023-01-05T08:32:57;11.00;99.90
15630;DHT22;7914;50.842;0.166;2023-01-05T08:35:23;11.00;99.90
15630;DHT22;7914;50.842;0.166;2023-01-05T08:37:49;11.00;99.90
15630;DHT22;7914;50.842;0.166;2023-01-05T08:40:14;11.00;99.90
15630;DHT22;7914;50.842;0.166;2023-01-05T08:42:40;11.10;99.90
15630;DHT22;7914;50.842;0.166;2023-01-05T08:45:06;11.10;99.90
15630;DHT22;7914;50.842;0.166;2023-01-05T08:47:32;11.00;99.90
15630;DHT22;7914;50.842;0.166;2023-01-05T08:49:57;11.10;99.90
15630;DHT22;7914;50.842;0.166;2023-01-05T08:52:23;11.10;99.90
15630;DHT22;7914;50.842;0.166;2023-01-05T08:54:49;11.20;99.90
15630;DHT22;7914;50.842;0.166;2023-01-05T08:57:15;11.20;99.90
15630;DHT22;7914;50.842;0.166;2023-01-05T08:59:40;11.10;99.90
15630;DHT22;7914;50.842;0.166;2023-01-05T09:02:10;11.10;99.90
15630;DHT22;7914;50.842;0.166;2023-01-05T09:04:36;11.10;99.90
15630;DHT22;7914;50.842;0.166;2023-01-05T09:07:01;11.20;99.90
15630;DHT22;7914;50.842;0.166;2023-01-05T09:09:28;11.20;99.90
15630;DHT22;7914;50.842;0.166;2023-01-05T09:11:53;11.20;99.90
15630;DHT22;7914;50.842;0.166;2023-01-05T09:14:19;11.20;99.90
15630;DHT22;7914;50.842;0.166;2023-01-05T09:16:45;11.20;99.90
15630;DHT22;7914;50.842;0.166;2023-01-05T09:19:11;11.20;99.90
15630;DHT22;7914;50.842;0.166;2023-01-05T09:21:37;11.20;99.90
15630;DHT22;7914;50.842;0.166;2023-01-05T09:24:04;11.20;99.90
15630;DHT22;7914;50.842;0.166;2023-01-05T09:26:32;11.20;99.90
15630;DHT22;7914;50.842;0.166;2023-01-05T09:28:57;11.30;99.90
15630;DHT22;7914;50.842;0.166;2023-01-05T09:31:23;11.30;99.90
15630;DHT22;7914;50.842;0.166;2023-01-05T09:33:49;11.30;99.90
15630;DHT22;7914;50.842;0.166;2023-01-05T09:36:17;11.30;99.90
15630;DHT22;7914;50.842;0.166;2023-01-05T09:38:49;11.40;99.90
15630;DHT22;7914;50.842;0.166;2023-01-05T09:41:29;11.40;99.90
15630;DHT22;7914;50.842;0.166;2023-01-05T09:44:23;11.40;99.90
15630;DHT22;7914;50.842;0.166;2023-01-05T09:46:50;11.30;99.90
15630;DHT22;7914;50.842;0.166;2023-01-05T09:49:20;11.30;99.90
15630;DHT22;7914;50.842;0.166;2023-01-05T09:51:48;11.40;99.90
15630;DHT22;7914;50.842;0.166;2023-01-05T09:54:17;11.50;99.90
15630;DHT22;7914;50.842;0.166;2023-01-05T09:56:45;11.40;99.90
15630;DHT22;7914;50.842;0.166;2023-01-05T10:01:40;11.40;99.90
15630;DHT22;7914;50.842;0.166;2023-01-05T10:04:20;11.30;99.90
15630;DHT22;7914;50.842;0.166;2023-01-05T10:06:49;11.30;99.90
15630;DHT22;7914;50.842;0.166;2023-01-05T10:09:19;11.30;99.90
15630;DHT22;7914;50.842;0.166;2023-01-05T10:11:58;11.30;99.90
15630;DHT22;7914;50.842;0.166;2023-01-05T10:14:44;11.30;99.90
15630;DHT22;7914;50.842;0.166;2023-01-05T10:17:16;11.40;99.90
15630;DHT22;7914;50.842;0.166;2023-01-05T10:19:43;11.30;99.90
15630;DHT22;7914;50.842;0.166;2023-01-05T10:25:18;11.30;99.90
15630;DHT22;7914;50.842;0.166;2023-01-05T10:28:20;11.40;99.90
15630;DHT22;7914;50.842;0.166;2023-01-05T10:36:24;11.40;99.90
15630;DHT22;7914;50.842;0.166;2023-01-05T10:41:55;11.50;99.90
15630;DHT22;7914;50.842;0.166;2023-01-05T10:47:08;11.60;99.90
15630;DHT22;7914;50.842;0.166;2023-01-05T10:49:34;11.60;99.90
15630;DHT22;7914;50.842;0.166;2023-01-05T10:52:00;11.70;99.90
15630;DHT22;7914;50.842;0.166;2023-01-05T11:02:36;11.60;99.90
15630;DHT22;7914;50.842;0.166;2023-01-05T11:07:58;11.60;99.90
15630;DHT22;7914;50.842;0.166;2023-01-05T11:10:32;11.60;99.90
15630;DHT22;7914;50.842;0.166;2023-01-05T11:13:16;11.70;99.90
15630;DHT22;7914;50.842;0.166;2023-01-05T11:15:55;11.70;99.90
15630;DHT22;7914;50.842;0.166;2023-01-05T11:18:53;11.70;99.90
15630;DHT22;7914;50.842;0.166;2023-01-05T11:21:21;11.80;99.90
15630;DHT22;7914;50.842;0.166;2023-01-05T11:23:49;11.80;99.90
15630;DHT22;7914;50.842;0.166;2023-01-05T11:33:57;11.70;99.90
15630;DHT22;7914;50.842;0.166;2023-01-05T11:36:24;11.80;99.90
15630;DHT22;7914;50.842;0.166;2023-01-05T11:38:55;11.80;99.90
15630;DHT22;7914;50.842;0.166;2023-01-05T11:41:21;11.70;99.90
15630;DHT22;7914;50.842;0.166;2023-01-05T11:43:48;11.80;99.90
15630;DHT22;7914;50.842;0.166;2023-01-05T11:46:14;11.70;99.90
15630;DHT22;7914;50.842;0.166;2023-01-05T11:48:53;11.80;99.90
15630;DHT22;7914;50.842;0.166;2023-01-05T11:51:37;11.80;99.90
15630;DHT22;7914;50.842;0.166;2023-01-05T11:54:03;11.80;99.90
15630;DHT22;7914;50.842;0.166;2023-01-05T11:56:30;11.80;99.90
15630;DHT22;7914;50.842;0.166;2023-01-05T11:58:56;11.80;99.90
15630;DHT22;7914;50.842;0.166;2023-01-05T12:04:18;11.90;99.90
15630;DHT22;7914;50.842;0.166;2023-01-05T12:07:14;11.80;99.90
15630;DHT22;7914;50.842;0.166;2023-01-05T12:09:46;11.80;99.90
15630;DHT22;7914;50.842;0.166;2023-01-05T12:31:16;12.00;99.90
15630;DHT22;7914;50.842;0.166;2023-01-05T12:45:00;12.00;99.90
15630;DHT22;7914;50.842;0.166;2023-01-05T12:47:59;12.00;99.90
15630;DHT22;7914;50.842;0.166;2023-01-05T12:50:38;12.10;99.90
15630;DHT22;7914;50.842;0.166;2023-01-05T12:53:19;12.10;99.90
15630;DHT22;7914;50.842;0.166;2023-01-05T12:55:50;12.10;99.90
15630;DHT22;7914;50.842;0.166;2023-01-05T12:58:40;12.10;99.90
15630;DHT22;7914;50.842;0.166;2023-01-05T13:01:18;12.10;99.90
15630;DHT22;7914;50.842;0.166;2023-01-05T13:03:47;12.20;99.90
15630;DHT22;7914;50.842;0.166;2023-01-05T13:06:16;12.20;99.90
15630;DHT22;7914;50.842;0.166;2023-01-05T13:08:56;12.20;99.90
15630;DHT22;7914;50.842;0.166;2023-01-05T13:11:50;12.20;99.90
15630;DHT22;7914;50.842;0.166;2023-01-05T13:14:29;12.20;99.90
15630;DHT22;7914;50.842;0.166;2023-01-05T13:17:09;12.20;99.90
15630;DHT22;7914;50.842;0.166;2023-01-05T13:19:49;12.30;99.90
15630;DHT22;7914;50.842;0.166;2023-01-05T13:22:28;12.30;99.90
15630;DHT22;7914;50.842;0.166;2023-01-05T13:24:59;12.30;99.90
15630;DHT22;7914;50.842;0.166;2023-01-05T13:27:27;12.30;99.90
15630;DHT22;7914;50.842;0.166;2023-01-05T13:29:54;12.30;99.90
15630;DHT22;7914;50.842;0.166;2023-01-05T13:32:43;12.30;99.90
15630;DHT22;7914;50.842;0.166;2023-01-05T13:43:38;12.20;99.90
15630;DHT22;7914;50.842;0.166;2023-01-05T13:57:08;12.20;99.90
15630;DHT22;7914;50.842;0.166;2023-01-05T13:59:37;12.20;99.90
15630;DHT22;7914;50.842;0.166;2023-01-05T14:02:03;12.20;99.90
15630;DHT22;7914;50.842;0.166;2023-01-05T14:04:32;12.20;99.90
15630;DHT22;7914;50.842;0.166;2023-01-05T14:07:16;12.20;99.90
15630;DHT22;7914;50.842;0.166;2023-01-05T14:09:49;12.20;99.90
15630;DHT22;7914;50.842;0.166;2023-01-05T14:20:41;12.10;99.90
15630;DHT22;7914;50.842;0.166;2023-01-05T14:25:53;12.10;99.90
15630;DHT22;7914;50.842;0.166;2023-01-05T14:36:40;12.10;99.90
15630;DHT22;7914;50.842;0.166;2023-01-05T14:39:44;12.00;99.90
15630;DHT22;7914;50.842;0.166;2023-01-05T14:42:15;12.10;99.90
15630;DHT22;7914;50.842;0.166;2023-01-05T14:47:15;12.00;99.90
15630;DHT22;7914;50.842;0.166;2023-01-05T14:49:54;12.00;99.90
15630;DHT22;7914;50.842;0.166;2023-01-05T14:52:53;12.00;99.90
15630;DHT22;7914;50.842;0.166;2023-01-05T14:55:28;12.00;99.90
15630;DHT22;7914;50.842;0.166;2023-01-05T14:57:56;11.90;99.90
15630;DHT22;7914;50.842;0.166;2023-01-05T15:03:24;11.90;99.90
15630;DHT22;7914;50.842;0.166;2023-01-05T15:06:28;12.00;99.90
15630;DHT22;7914;50.842;0.166;2023-01-05T15:09:15;11.90;99.90
15630;DHT22;7914;50.842;0.166;2023-01-05T15:11:49;11.90;99.90
15630;DHT22;7914;50.842;0.166;2023-01-05T15:26:22;11.70;99.90
15630;DHT22;7914;50.842;0.166;2023-01-05T15:37:21;11.80;99.90
15630;DHT22;7914;50.842;0.166;2023-01-05T15:39:49;11.70;99.90
15630;DHT22;7914;50.842;0.166;2023-01-05T15:42:30;11.70;99.90
15630;DHT22;7914;50.842;0.166;2023-01-05T15:44:58;11.70;99.90
15630;DHT22;7914;50.842;0.166;2023-01-05T15:47:26;11.70;99.90
15630;DHT22;7914;50.842;0.166;2023-01-05T15:49:57;11.70;99.90
15630;DHT22;7914;50.842;0.166;2023-01-05T15:52:36;11.70;99.90
15630;DHT22;7914;50.842;0.166;2023-01-05T15:57:36;11.70;99.90
15630;DHT22;7914;50.842;0.166;2023-01-05T16:00:17;11.60;99.90
15630;DHT22;7914;50.842;0.166;2023-01-05T16:02:43;11.60;99.90
15630;DHT22;7914;50.842;0.166;2023-01-05T16:05:18;11.50;99.90
15630;DHT22;7914;50.842;0.166;2023-01-05T16:07:50;11.50;99.90
15630;DHT22;7914;50.842;0.166;2023-01-05T16:10:20;11.40;99.90
15630;DHT22;7914;50.842;0.166;2023-01-05T16:12:49;11.40;99.90
15630;DHT22;7914;50.842;0.166;2023-01-05T16:15:19;11.40;99.90
15630;DHT22;7914;50.842;0.166;2023-01-05T16:17:47;11.40;99.90
15630;DHT22;7914;50.842;0.166;2023-01-05T16:20:20;11.40;99.90
15630;DHT22;7914;50.842;0.166;2023-01-05T16:23:05;11.40;99.90
15630;DHT22;7914;50.842;0.166;2023-01-05T16:25:50;11.40;99.90
15630;DHT22;7914;50.842;0.166;2023-01-05T16:28:18;11.50;99.90
15630;DHT22;7914;50.842;0.166;2023-01-05T16:30:46;11.50;99.90
15630;DHT22;7914;50.842;0.166;2023-01-05T16:33:28;11.50;99.90
15630;DHT22;7914;50.842;0.166;2023-01-05T16:36:19;11.40;99.90
15630;DHT22;7914;50.842;0.166;2023-01-05T16:38:46;11.50;99.90
15630;DHT22;7914;50.842;0.166;2023-01-05T16:41:23;11.40;99.90
15630;DHT22;7914;50.842;0.166;2023-01-05T16:48:50;11.30;99.90
15630;DHT22;7914;50.842;0.166;2023-01-05T16:51:19;11.30;99.90
15630;DHT22;7914;50.842;0.166;2023-01-05T16:53:49;11.30;99.90
15630;DHT22;7914;50.842;0.166;2023-01-05T16:58:59;11.10;99.90
15630;DHT22;7914;50.842;0.166;2023-01-05T17:03:57;11.10;99.90
15630;DHT22;7914;50.842;0.166;2023-01-05T17:08:52;11.00;99.90
15630;DHT22;7914;50.842;0.166;2023-01-05T17:11:19;11.00;99.90
15630;DHT22;7914;50.842;0.166;2023-01-05T17:13:52;10.90;99.90
15630;DHT22;7914;50.842;0.166;2023-01-05T17:16:19;10.80;99.90
15630;DHT22;7914;50.842;0.166;2023-01-05T17:18:46;10.80;99.90
15630;DHT22;7914;50.842;0.166;2023-01-05T17:21:15;10.70;99.90
15630;DHT22;7914;50.842;0.166;2023-01-05T17:23:48;10.70;99.90
15630;DHT22;7914;50.842;0.166;2023-01-05T17:26:26;10.70;99.90
15630;DHT22;7914;50.842;0.166;2023-01-05T17:28:56;10.70;99.90
15630;DHT22;7914;50.842;0.166;2023-01-05T17:31:22;10.60;99.90
15630;DHT22;7914;50.842;0.166;2023-01-05T17:33:48;10.60;99.90
15630;DHT22;7914;50.842;0.166;2023-01-05T17:36:13;10.60;99.90
15630;DHT22;7914;50.842;0.166;2023-01-05T17:38:39;10.70;99.90
15630;DHT22;7914;50.842;0.166;2023-01-05T17:41:05;10.70;99.90
15630;DHT22;7914;50.842;0.166;2023-01-05T17:43:31;10.80;99.90
15630;DHT22;7914;50.842;0.166;2023-01-05T17:45:56;10.80;99.90
15630;DHT22;7914;50.842;0.166;2023-01-05T17:48:22;10.80;99.90
15630;DHT22;7914;50.842;0.166;2023-01-05T17:50:48;10.80;99.90
15630;DHT22;7914;50.842;0.166;2023-01-05T17:53:14;10.80;99.90
15630;DHT22;7914;50.842;0.166;2023-01-05T17:55:40;10.80;99.90
15630;DHT22;7914;50.842;0.166;2023-01-05T17:58:09;10.80;99.90
15630;DHT22;7914;50.842;0.166;2023-01-05T18:00:37;10.80;99.90
15630;DHT22;7914;50.842;0.166;2023-01-05T18:03:07;10.80;99.90
15630;DHT22;7914;50.842;0.166;2023-01-05T18:05:34;10.80;99.90
15630;DHT22;7914;50.842;0.166;2023-01-05T18:08:00;10.80;99.90
15630;DHT22;7914;50.842;0.166;2023-01-05T18:10:25;10.80;99.90
15630;DHT22;7914;50.842;0.166;2023-01-05T18:12:52;10.80;99.90
15630;DHT22;7914;50.842;0.166;2023-01-05T18:15:18;10.80;99.90
15630;DHT22;7914;50.842;0.166;2023-01-05T18:17:43;10.70;99.90
15630;DHT22;7914;50.842;0.166;2023-01-05T18:20:12;10.80;99.90
15630;DHT22;7914;50.842;0.166;2023-01-05T18:22:38;10.80;99.90
15630;DHT22;7914;50.842;0.166;2023-01-05T18:25:04;10.70;99.90
15630;DHT22;7914;50.842;0.166;2023-01-05T18:27:30;10.80;99.90
15630;DHT22;7914;50.842;0.166;2023-01-05T18:30:02;10.80;99.90
15630;DHT22;7914;50.842;0.166;2023-01-05T18:32:28;10.80;99.90
15630;DHT22;7914;50.842;0.166;2023-01-05T18:34:54;10.90;99.90
15630;DHT22;7914;50.842;0.166;2023-01-05T18:37:20;10.80;99.90
15630;DHT22;7914;50.842;0.166;2023-01-05T18:39:45;10.80;99.90
15630;DHT22;7914;50.842;0.166;2023-01-05T18:42:11;10.90;99.90
15630;DHT22;7914;50.842;0.166;2023-01-05T18:44:37;10.90;99.90
15630;DHT22;7914;50.842;0.166;2023-01-05T18:47:03;10.90;99.90
15630;DHT22;7914;50.842;0.166;2023-01-05T18:49:28;10.90;99.90
15630;DHT22;7914;50.842;0.166;2023-01-05T18:51:54;10.90;99.90
15630;DHT22;7914;50.842;0.166;2023-01-05T18:54:20;10.80;99.90
15630;DHT22;7914;50.842;0.166;2023-01-05T18:56:46;10.80;99.90
15630;DHT22;7914;50.842;0.166;2023-01-05T18:59:12;10.90;99.90
15630;DHT22;7914;50.842;0.166;2023-01-05T19:01:38;10.80;99.90
15630;DHT22;7914;50.842;0.166;2023-01-05T19:04:11;10.80;99.90
15630;DHT22;7914;50.842;0.166;2023-01-05T19:06:37;10.80;99.90